Česky Dansk Deutsch English Español Suomi Français Magyar Italiano Nederlands norsk Polski Português svenska Türkçe

 

Het Weer

Firenze / Peretola (Italië)

05:50, 16 augustus 2016 (GMT)

NWNNE
WE
SWSSE
Home            
Firenze / Peretola Porretta Pass Volterra Monte Cimone Arezzo Pisa / S. Giusto Bologna / Borgo Panigale Forli Cervia Sarzana / Luni Radicofani Isola Di Palmaria Punta Marina Rimini Grosseto Ferrara Passo Della Cisa Frontone Perugia Parma M. Calamita Monte Argentario Viterbo

Om een weerknop op uw website of weblog te plaatsen, copieer onderstaande code en plak die in uw pagina. In het eerste vakje staat HTML-code, in het tweede vakje UBB-code.


Add to Google

Details

Wind speed:1 bf, 1 kn, 0.5 m/s, 1.2 miles/h, 1.9 km/h
Wind direction:Variable
Visibility:Greater than 10000 m, 10 km, 32800 ft, 6.2 miles
Clouds:CAVOC
Temperature:21°C, 70°F
Dew-point:16°C, 61°F
Atmospheric pressure:1017 hPa, 762.8 mmHg, 30.03 inHg, 1.004 atm
Relative humidity:73.1 %
METAR:LIRQ 160550Z VRB01KT CAVOK 21/16 Q1017

Snelkoppelingen

Actuele weersinformatie van de hele wereld. Voeg locaties toe met het plus (+) symbool. Deze snelkoppelingen kunnen worden toegevoegd aan Google.

Lid van de Technetium groep

website free tracking
StatCounter NetStat W3C Validator

18-08-2022 03:35:19
astro.technetium.be money.technetium.be phote.technetium.be tafeltennistafel.technetium.be www.ligfiets.net